sensor_id;sensor_type;location;lat;lon;timestamp;temperature;humidity
50955;DHT22;36966;48.064;-0.792;2023-02-20T00:01:21;14.90;50.00
50955;DHT22;36966;48.064;-0.792;2023-02-20T00:03:41;14.90;50.00
50955;DHT22;36966;48.064;-0.792;2023-02-20T00:06:00;14.90;50.00
50955;DHT22;36966;48.064;-0.792;2023-02-20T00:08:20;14.90;49.90
50955;DHT22;36966;48.064;-0.792;2023-02-20T00:10:41;14.90;49.90
50955;DHT22;36966;48.064;-0.792;2023-02-20T00:13:00;14.90;49.90
50955;DHT22;36966;48.064;-0.792;2023-02-20T00:15:20;14.80;49.80
50955;DHT22;36966;48.064;-0.792;2023-02-20T00:17:44;14.80;49.80
50955;DHT22;36966;48.064;-0.792;2023-02-20T00:20:05;14.80;49.80
50955;DHT22;36966;48.064;-0.792;2023-02-20T00:22:26;14.80;49.80
50955;DHT22;36966;48.064;-0.792;2023-02-20T00:24:45;14.80;49.80
50955;DHT22;36966;48.064;-0.792;2023-02-20T00:27:04;14.80;49.70
50955;DHT22;36966;48.064;-0.792;2023-02-20T00:29:24;14.80;49.80
50955;DHT22;36966;48.064;-0.792;2023-02-20T00:31:55;14.80;49.70
50955;DHT22;36966;48.064;-0.792;2023-02-20T00:34:15;14.80;49.70
50955;DHT22;36966;48.064;-0.792;2023-02-20T00:36:34;14.80;49.70
50955;DHT22;36966;48.064;-0.792;2023-02-20T00:38:53;14.80;49.70
50955;DHT22;36966;48.064;-0.792;2023-02-20T00:41:13;14.80;49.60
50955;DHT22;36966;48.064;-0.792;2023-02-20T00:43:33;14.80;49.60
50955;DHT22;36966;48.064;-0.792;2023-02-20T00:45:55;14.80;49.60
50955;DHT22;36966;48.064;-0.792;2023-02-20T00:48:14;14.80;49.60
50955;DHT22;36966;48.064;-0.792;2023-02-20T00:50:33;14.80;49.60
50955;DHT22;36966;48.064;-0.792;2023-02-20T00:52:52;14.80;49.60
50955;DHT22;36966;48.064;-0.792;2023-02-20T00:55:11;14.80;49.50
50955;DHT22;36966;48.064;-0.792;2023-02-20T00:57:31;14.70;49.50
50955;DHT22;36966;48.064;-0.792;2023-02-20T00:59:51;14.80;49.50
50955;DHT22;36966;48.064;-0.792;2023-02-20T01:02:11;14.70;49.40
50955;DHT22;36966;48.064;-0.792;2023-02-20T01:04:30;14.80;49.40
50955;DHT22;36966;48.064;-0.792;2023-02-20T01:06:49;14.70;49.40
50955;DHT22;36966;48.064;-0.792;2023-02-20T01:09:08;14.70;49.30
50955;DHT22;36966;48.064;-0.792;2023-02-20T01:11:27;14.70;49.30
50955;DHT22;36966;48.064;-0.792;2023-02-20T01:13:46;14.70;49.30
50955;DHT22;36966;48.064;-0.792;2023-02-20T01:16:06;14.70;49.20
50955;DHT22;36966;48.064;-0.792;2023-02-20T01:18:26;14.70;49.30
50955;DHT22;36966;48.064;-0.792;2023-02-20T01:20:45;14.70;49.20
50955;DHT22;36966;48.064;-0.792;2023-02-20T01:23:04;14.70;49.20
50955;DHT22;36966;48.064;-0.792;2023-02-20T01:25:23;14.70;49.20
50955;DHT22;36966;48.064;-0.792;2023-02-20T01:27:42;14.70;49.10
50955;DHT22;36966;48.064;-0.792;2023-02-20T01:30:02;14.70;49.10
50955;DHT22;36966;48.064;-0.792;2023-02-20T01:32:21;14.70;49.10
50955;DHT22;36966;48.064;-0.792;2023-02-20T01:34:40;14.70;49.10
50955;DHT22;36966;48.064;-0.792;2023-02-20T01:36:59;14.70;49.10
50955;DHT22;36966;48.064;-0.792;2023-02-20T01:39:20;14.70;49.10
50955;DHT22;36966;48.064;-0.792;2023-02-20T01:41:39;14.70;49.00
50955;DHT22;36966;48.064;-0.792;2023-02-20T01:43:59;14.70;49.00
50955;DHT22;36966;48.064;-0.792;2023-02-20T01:48:46;14.70;49.00
50955;DHT22;36966;48.064;-0.792;2023-02-20T01:51:05;14.70;49.00
50955;DHT22;36966;48.064;-0.792;2023-02-20T01:53:26;14.70;48.90
50955;DHT22;36966;48.064;-0.792;2023-02-20T01:56:02;14.70;48.90
50955;DHT22;36966;48.064;-0.792;2023-02-20T01:58:27;14.60;48.90
50955;DHT22;36966;48.064;-0.792;2023-02-20T02:00:48;14.70;48.80
50955;DHT22;36966;48.064;-0.792;2023-02-20T02:03:14;14.70;48.80
50955;DHT22;36966;48.064;-0.792;2023-02-20T02:05:37;14.60;48.80
50955;DHT22;36966;48.064;-0.792;2023-02-20T02:07:59;14.70;48.80
50955;DHT22;36966;48.064;-0.792;2023-02-20T02:10:24;14.60;48.70
50955;DHT22;36966;48.064;-0.792;2023-02-20T02:12:49;14.60;48.70
50955;DHT22;36966;48.064;-0.792;2023-02-20T02:15:18;14.60;48.70
50955;DHT22;36966;48.064;-0.792;2023-02-20T02:36:15;14.60;48.50
50955;DHT22;36966;48.064;-0.792;2023-02-20T02:38:46;14.50;48.50
50955;DHT22;36966;48.064;-0.792;2023-02-20T02:43:59;14.50;48.50
50955;DHT22;36966;48.064;-0.792;2023-02-20T02:46:33;14.60;48.40
50955;DHT22;36966;48.064;-0.792;2023-02-20T02:49:01;14.50;48.40
50955;DHT22;36966;48.064;-0.792;2023-02-20T02:51:28;14.50;48.30
50955;DHT22;36966;48.064;-0.792;2023-02-20T02:54:09;14.50;48.40
50955;DHT22;36966;48.064;-0.792;2023-02-20T02:56:37;14.50;48.30
50955;DHT22;36966;48.064;-0.792;2023-02-20T02:58:56;14.50;48.20
50955;DHT22;36966;48.064;-0.792;2023-02-20T03:01:18;14.50;48.20
50955;DHT22;36966;48.064;-0.792;2023-02-20T03:03:40;14.40;48.20
50955;DHT22;36966;48.064;-0.792;2023-02-20T03:06:20;14.50;48.20
50955;DHT22;36966;48.064;-0.792;2023-02-20T03:08:48;14.50;48.10
50955;DHT22;36966;48.064;-0.792;2023-02-20T03:11:17;14.50;48.10
50955;DHT22;36966;48.064;-0.792;2023-02-20T03:13:42;14.40;48.10
50955;DHT22;36966;48.064;-0.792;2023-02-20T03:16:30;14.40;48.10
50955;DHT22;36966;48.064;-0.792;2023-02-20T03:18:52;14.40;48.10
50955;DHT22;36966;48.064;-0.792;2023-02-20T03:21:17;14.40;48.00
50955;DHT22;36966;48.064;-0.792;2023-02-20T03:23:41;14.50;48.10
50955;DHT22;36966;48.064;-0.792;2023-02-20T03:26:09;14.40;48.00
50955;DHT22;36966;48.064;-0.792;2023-02-20T03:28:39;14.40;48.00
50955;DHT22;36966;48.064;-0.792;2023-02-20T03:31:24;14.40;48.10
50955;DHT22;36966;48.064;-0.792;2023-02-20T03:33:54;14.40;48.10
50955;DHT22;36966;48.064;-0.792;2023-02-20T03:36:38;14.40;48.10
50955;DHT22;36966;48.064;-0.792;2023-02-20T03:39:23;14.40;48.10
50955;DHT22;36966;48.064;-0.792;2023-02-20T03:42:05;14.40;48.10
50955;DHT22;36966;48.064;-0.792;2023-02-20T03:44:46;14.40;48.10
50955;DHT22;36966;48.064;-0.792;2023-02-20T03:47:07;14.40;48.10
50955;DHT22;36966;48.064;-0.792;2023-02-20T03:49:34;14.40;48.20
50955;DHT22;36966;48.064;-0.792;2023-02-20T03:51:54;14.40;48.20
50955;DHT22;36966;48.064;-0.792;2023-02-20T03:54:13;14.40;48.20
50955;DHT22;36966;48.064;-0.792;2023-02-20T03:56:39;14.40;48.20
50955;DHT22;36966;48.064;-0.792;2023-02-20T03:59:13;14.40;48.20
50955;DHT22;36966;48.064;-0.792;2023-02-20T04:01:35;14.40;48.20
50955;DHT22;36966;48.064;-0.792;2023-02-20T04:03:56;14.40;48.20
50955;DHT22;36966;48.064;-0.792;2023-02-20T04:06:17;14.40;48.20
50955;DHT22;36966;48.064;-0.792;2023-02-20T04:08:43;14.40;48.20
50955;DHT22;36966;48.064;-0.792;2023-02-20T04:11:23;14.30;48.20
50955;DHT22;36966;48.064;-0.792;2023-02-20T04:13:46;14.40;48.30
50955;DHT22;36966;48.064;-0.792;2023-02-20T04:16:07;14.30;48.30
50955;DHT22;36966;48.064;-0.792;2023-02-20T04:18:27;14.30;48.30
50955;DHT22;36966;48.064;-0.792;2023-02-20T04:20:52;14.30;48.40
50955;DHT22;36966;48.064;-0.792;2023-02-20T04:23:19;14.30;48.40
50955;DHT22;36966;48.064;-0.792;2023-02-20T04:28:12;14.30;48.50
50955;DHT22;36966;48.064;-0.792;2023-02-20T04:30:32;14.30;48.50
50955;DHT22;36966;48.064;-0.792;2023-02-20T04:32:51;14.30;48.60
50955;DHT22;36966;48.064;-0.792;2023-02-20T04:35:17;14.30;48.60
50955;DHT22;36966;48.064;-0.792;2023-02-20T04:37:37;14.30;48.70
50955;DHT22;36966;48.064;-0.792;2023-02-20T04:39:56;14.30;48.70
50955;DHT22;36966;48.064;-0.792;2023-02-20T04:42:16;14.30;48.80
50955;DHT22;36966;48.064;-0.792;2023-02-20T04:44:35;14.30;48.80
50955;DHT22;36966;48.064;-0.792;2023-02-20T04:46:55;14.30;48.90
50955;DHT22;36966;48.064;-0.792;2023-02-20T04:49:14;14.30;49.00
50955;DHT22;36966;48.064;-0.792;2023-02-20T04:51:34;14.30;49.00
50955;DHT22;36966;48.064;-0.792;2023-02-20T04:53:53;14.30;49.10
50955;DHT22;36966;48.064;-0.792;2023-02-20T04:56:12;14.30;49.10
50955;DHT22;36966;48.064;-0.792;2023-02-20T04:58:32;14.30;49.10
50955;DHT22;36966;48.064;-0.792;2023-02-20T05:00:54;14.30;49.20
50955;DHT22;36966;48.064;-0.792;2023-02-20T05:03:14;14.20;49.30
50955;DHT22;36966;48.064;-0.792;2023-02-20T05:05:33;14.20;49.30
50955;DHT22;36966;48.064;-0.792;2023-02-20T05:08:04;14.20;49.30
50955;DHT22;36966;48.064;-0.792;2023-02-20T05:10:25;14.30;49.30
50955;DHT22;36966;48.064;-0.792;2023-02-20T05:12:44;14.30;49.40
50955;DHT22;36966;48.064;-0.792;2023-02-20T05:15:04;14.20;49.40
50955;DHT22;36966;48.064;-0.792;2023-02-20T05:17:23;14.20;49.30
50955;DHT22;36966;48.064;-0.792;2023-02-20T05:19:43;14.20;49.40
50955;DHT22;36966;48.064;-0.792;2023-02-20T05:22:08;14.20;49.40
50955;DHT22;36966;48.064;-0.792;2023-02-20T05:24:48;14.20;49.50
50955;DHT22;36966;48.064;-0.792;2023-02-20T05:27:08;14.20;49.40
50955;DHT22;36966;48.064;-0.792;2023-02-20T05:29:28;14.20;49.40
50955;DHT22;36966;48.064;-0.792;2023-02-20T05:31:47;14.20;49.40
50955;DHT22;36966;48.064;-0.792;2023-02-20T05:34:08;14.20;49.40
50955;DHT22;36966;48.064;-0.792;2023-02-20T05:36:27;14.20;49.40
50955;DHT22;36966;48.064;-0.792;2023-02-20T05:38:46;14.20;49.40
50955;DHT22;36966;48.064;-0.792;2023-02-20T05:41:07;14.20;49.40
50955;DHT22;36966;48.064;-0.792;2023-02-20T05:43:26;14.20;49.40
50955;DHT22;36966;48.064;-0.792;2023-02-20T05:45:45;14.20;49.40
50955;DHT22;36966;48.064;-0.792;2023-02-20T05:48:05;14.20;49.40
50955;DHT22;36966;48.064;-0.792;2023-02-20T05:50:24;14.20;49.40
50955;DHT22;36966;48.064;-0.792;2023-02-20T05:52:43;14.20;49.40
50955;DHT22;36966;48.064;-0.792;2023-02-20T05:55:03;14.20;49.40
50955;DHT22;36966;48.064;-0.792;2023-02-20T05:57:22;14.20;49.50
50955;DHT22;36966;48.064;-0.792;2023-02-20T05:59:41;14.20;49.40
50955;DHT22;36966;48.064;-0.792;2023-02-20T06:02:00;14.20;49.40
50955;DHT22;36966;48.064;-0.792;2023-02-20T06:04:19;14.20;49.40
50955;DHT22;36966;48.064;-0.792;2023-02-20T06:06:40;14.20;49.40
50955;DHT22;36966;48.064;-0.792;2023-02-20T06:09:00;14.20;49.40
50955;DHT22;36966;48.064;-0.792;2023-02-20T06:11:19;14.20;49.30
50955;DHT22;36966;48.064;-0.792;2023-02-20T06:13:43;14.20;49.40
50955;DHT22;36966;48.064;-0.792;2023-02-20T06:16:03;14.20;49.30
50955;DHT22;36966;48.064;-0.792;2023-02-20T06:18:22;14.20;49.40
50955;DHT22;36966;48.064;-0.792;2023-02-20T06:20:41;14.20;49.30
50955;DHT22;36966;48.064;-0.792;2023-02-20T06:23:01;14.20;49.30
50955;DHT22;36966;48.064;-0.792;2023-02-20T06:25:20;14.10;49.30
50955;DHT22;36966;48.064;-0.792;2023-02-20T06:27:39;14.10;49.30
50955;DHT22;36966;48.064;-0.792;2023-02-20T06:29:58;14.10;49.40
50955;DHT22;36966;48.064;-0.792;2023-02-20T06:32:18;14.10;49.30
50955;DHT22;36966;48.064;-0.792;2023-02-20T06:34:38;14.20;49.30
50955;DHT22;36966;48.064;-0.792;2023-02-20T06:36:58;14.10;49.30
50955;DHT22;36966;48.064;-0.792;2023-02-20T06:39:21;14.20;49.30
50955;DHT22;36966;48.064;-0.792;2023-02-20T06:41:40;14.10;49.30
50955;DHT22;36966;48.064;-0.792;2023-02-20T06:43:59;14.10;49.30
50955;DHT22;36966;48.064;-0.792;2023-02-20T06:46:18;14.10;49.30
50955;DHT22;36966;48.064;-0.792;2023-02-20T06:48:49;14.10;49.30
50955;DHT22;36966;48.064;-0.792;2023-02-20T06:51:09;14.10;49.30
50955;DHT22;36966;48.064;-0.792;2023-02-20T06:53:28;14.10;49.30
50955;DHT22;36966;48.064;-0.792;2023-02-20T06:55:47;14.10;49.30
50955;DHT22;36966;48.064;-0.792;2023-02-20T06:58:06;14.10;49.20
50955;DHT22;36966;48.064;-0.792;2023-02-20T07:00:25;14.10;49.30
50955;DHT22;36966;48.064;-0.792;2023-02-20T07:02:45;14.10;49.20
50955;DHT22;36966;48.064;-0.792;2023-02-20T07:05:04;14.10;49.20
50955;DHT22;36966;48.064;-0.792;2023-02-20T07:07:24;14.10;49.20
50955;DHT22;36966;48.064;-0.792;2023-02-20T07:09:43;14.10;49.20
50955;DHT22;36966;48.064;-0.792;2023-02-20T07:12:02;14.10;49.20
50955;DHT22;36966;48.064;-0.792;2023-02-20T07:14:22;14.10;49.20
50955;DHT22;36966;48.064;-0.792;2023-02-20T07:16:42;14.00;49.10
50955;DHT22;36966;48.064;-0.792;2023-02-20T07:19:01;14.00;49.10
50955;DHT22;36966;48.064;-0.792;2023-02-20T07:21:20;14.10;49.10
50955;DHT22;36966;48.064;-0.792;2023-02-20T07:23:40;14.00;49.10
50955;DHT22;36966;48.064;-0.792;2023-02-20T07:25:59;14.00;49.00
50955;DHT22;36966;48.064;-0.792;2023-02-20T07:28:19;14.00;49.00
50955;DHT22;36966;48.064;-0.792;2023-02-20T07:30:38;14.00;48.90
50955;DHT22;36966;48.064;-0.792;2023-02-20T07:32:57;14.00;48.90
50955;DHT22;36966;48.064;-0.792;2023-02-20T07:35:16;14.00;48.90
50955;DHT22;36966;48.064;-0.792;2023-02-20T07:37:36;14.00;48.90
50955;DHT22;36966;48.064;-0.792;2023-02-20T07:39:55;14.00;48.90
50955;DHT22;36966;48.064;-0.792;2023-02-20T07:42:16;14.00;48.90
50955;DHT22;36966;48.064;-0.792;2023-02-20T07:44:36;14.00;48.80
50955;DHT22;36966;48.064;-0.792;2023-02-20T07:46:55;14.00;48.90
50955;DHT22;36966;48.064;-0.792;2023-02-20T07:49:14;14.00;48.90
50955;DHT22;36966;48.064;-0.792;2023-02-20T07:51:33;14.00;49.00
50955;DHT22;36966;48.064;-0.792;2023-02-20T07:53:52;14.10;48.90
50955;DHT22;36966;48.064;-0.792;2023-02-20T07:56:12;14.00;48.80
50955;DHT22;36966;48.064;-0.792;2023-02-20T07:58:31;14.00;48.80
50955;DHT22;36966;48.064;-0.792;2023-02-20T08:00:50;14.10;48.80
50955;DHT22;36966;48.064;-0.792;2023-02-20T08:03:11;14.10;48.80
50955;DHT22;36966;48.064;-0.792;2023-02-20T08:05:31;14.10;48.80
50955;DHT22;36966;48.064;-0.792;2023-02-20T08:07:50;14.10;48.90
50955;DHT22;36966;48.064;-0.792;2023-02-20T08:10:09;14.00;48.80
50955;DHT22;36966;48.064;-0.792;2023-02-20T08:12:29;14.10;48.90
50955;DHT22;36966;48.064;-0.792;2023-02-20T08:14:51;14.10;48.90
50955;DHT22;36966;48.064;-0.792;2023-02-20T08:17:11;14.10;48.90
50955;DHT22;36966;48.064;-0.792;2023-02-20T08:19:30;14.10;49.00
50955;DHT22;36966;48.064;-0.792;2023-02-20T08:21:49;14.10;48.90
50955;DHT22;36966;48.064;-0.792;2023-02-20T08:24:08;14.10;49.00
50955;DHT22;36966;48.064;-0.792;2023-02-20T08:26:27;14.10;49.00
50955;DHT22;36966;48.064;-0.792;2023-02-20T08:28:48;14.10;49.00
50955;DHT22;36966;48.064;-0.792;2023-02-20T08:31:07;14.00;49.00
50955;DHT22;36966;48.064;-0.792;2023-02-20T08:33:26;14.10;49.10
50955;DHT22;36966;48.064;-0.792;2023-02-20T08:35:45;14.10;49.10
50955;DHT22;36966;48.064;-0.792;2023-02-20T08:38:21;14.10;49.20
50955;DHT22;36966;48.064;-0.792;2023-02-20T08:40:41;14.10;49.20
50955;DHT22;36966;48.064;-0.792;2023-02-20T08:43:00;14.10;49.20
50955;DHT22;36966;48.064;-0.792;2023-02-20T08:45:20;14.10;49.30
50955;DHT22;36966;48.064;-0.792;2023-02-20T08:47:40;14.10;49.30
50955;DHT22;36966;48.064;-0.792;2023-02-20T08:49:59;14.10;49.40
50955;DHT22;36966;48.064;-0.792;2023-02-20T08:52:19;14.00;49.40
50955;DHT22;36966;48.064;-0.792;2023-02-20T08:54:38;14.10;49.40
50955;DHT22;36966;48.064;-0.792;2023-02-20T08:56:58;14.00;49.50
50955;DHT22;36966;48.064;-0.792;2023-02-20T08:59:17;14.10;49.50
50955;DHT22;36966;48.064;-0.792;2023-02-20T09:01:39;14.10;49.60
50955;DHT22;36966;48.064;-0.792;2023-02-20T09:03:59;14.10;49.60
50955;DHT22;36966;48.064;-0.792;2023-02-20T09:06:19;14.10;49.60
50955;DHT22;36966;48.064;-0.792;2023-02-20T09:08:38;14.10;49.70
50955;DHT22;36966;48.064;-0.792;2023-02-20T09:10:57;14.10;49.70
50955;DHT22;36966;48.064;-0.792;2023-02-20T09:13:16;14.10;49.80
50955;DHT22;36966;48.064;-0.792;2023-02-20T09:15:35;14.10;49.80
50955;DHT22;36966;48.064;-0.792;2023-02-20T09:17:58;14.10;49.80
50955;DHT22;36966;48.064;-0.792;2023-02-20T09:20:19;14.10;49.90
50955;DHT22;36966;48.064;-0.792;2023-02-20T09:22:38;14.10;49.90
50955;DHT22;36966;48.064;-0.792;2023-02-20T09:24:57;14.10;49.90
50955;DHT22;36966;48.064;-0.792;2023-02-20T09:27:16;14.10;50.00
50955;DHT22;36966;48.064;-0.792;2023-02-20T09:29:36;14.10;50.00
50955;DHT22;36966;48.064;-0.792;2023-02-20T09:31:58;14.10;50.00
50955;DHT22;36966;48.064;-0.792;2023-02-20T09:34:18;14.00;50.00
50955;DHT22;36966;48.064;-0.792;2023-02-20T09:36:37;14.10;50.10
50955;DHT22;36966;48.064;-0.792;2023-02-20T09:38:56;14.10;50.10
50955;DHT22;36966;48.064;-0.792;2023-02-20T09:44:05;14.10;50.20
50955;DHT22;36966;48.064;-0.792;2023-02-20T09:46:27;14.10;50.20
50955;DHT22;36966;48.064;-0.792;2023-02-20T09:49:18;14.10;50.20
50955;DHT22;36966;48.064;-0.792;2023-02-20T09:51:53;14.00;50.20
50955;DHT22;36966;48.064;-0.792;2023-02-20T09:54:20;14.00;50.30
50955;DHT22;36966;48.064;-0.792;2023-02-20T09:56:50;14.00;50.30
50955;DHT22;36966;48.064;-0.792;2023-02-20T09:59:16;14.00;50.30
50955;DHT22;36966;48.064;-0.792;2023-02-20T10:01:40;14.10;50.40
50955;DHT22;36966;48.064;-0.792;2023-02-20T10:04:06;14.00;50.40
50955;DHT22;36966;48.064;-0.792;2023-02-20T10:06:31;14.10;50.50
50955;DHT22;36966;48.064;-0.792;2023-02-20T10:08:51;14.10;50.50
50955;DHT22;36966;48.064;-0.792;2023-02-20T10:11:19;14.10;50.50
50955;DHT22;36966;48.064;-0.792;2023-02-20T10:16:46;14.10;50.60
50955;DHT22;36966;48.064;-0.792;2023-02-20T10:29:31;14.10;50.80
50955;DHT22;36966;48.064;-0.792;2023-02-20T10:32:03;14.10;50.80
50955;DHT22;36966;48.064;-0.792;2023-02-20T10:34:34;14.10;50.80
50955;DHT22;36966;48.064;-0.792;2023-02-20T10:37:00;14.10;50.90
50955;DHT22;36966;48.064;-0.792;2023-02-20T10:39:22;14.10;50.90
50955;DHT22;36966;48.064;-0.792;2023-02-20T10:41:59;14.10;50.90
50955;DHT22;36966;48.064;-0.792;2023-02-20T10:44:38;14.10;50.90
50955;DHT22;36966;48.064;-0.792;2023-02-20T10:47:06;14.10;51.00
50955;DHT22;36966;48.064;-0.792;2023-02-20T10:49:57;14.10;51.00
50955;DHT22;36966;48.064;-0.792;2023-02-20T10:52:28;14.10;51.10
50955;DHT22;36966;48.064;-0.792;2023-02-20T10:58:04;14.10;51.10
50955;DHT22;36966;48.064;-0.792;2023-02-20T11:00:42;14.10;51.20
50955;DHT22;36966;48.064;-0.792;2023-02-20T11:03:11;14.10;51.20
50955;DHT22;36966;48.064;-0.792;2023-02-20T11:05:38;14.10;51.30
50955;DHT22;36966;48.064;-0.792;2023-02-20T11:07:59;14.10;51.30
50955;DHT22;36966;48.064;-0.792;2023-02-20T11:10:18;14.20;51.30
50955;DHT22;36966;48.064;-0.792;2023-02-20T11:15:11;14.10;51.40
50955;DHT22;36966;48.064;-0.792;2023-02-20T11:17:31;14.20;51.50
50955;DHT22;36966;48.064;-0.792;2023-02-20T11:19:59;14.10;51.50
50955;DHT22;36966;48.064;-0.792;2023-02-20T11:22:53;14.10;51.50
50955;DHT22;36966;48.064;-0.792;2023-02-20T11:25:35;14.10;51.50
50955;DHT22;36966;48.064;-0.792;2023-02-20T11:30:37;14.10;51.60
50955;DHT22;36966;48.064;-0.792;2023-02-20T11:36:25;14.10;51.70
50955;DHT22;36966;48.064;-0.792;2023-02-20T11:38:26;14.10;51.70
50955;DHT22;36966;48.064;-0.792;2023-02-20T11:43:24;14.20;51.80
50955;DHT22;36966;48.064;-0.792;2023-02-20T11:45:45;14.20;51.90
50955;DHT22;36966;48.064;-0.792;2023-02-20T11:48:10;14.20;51.90
50955;DHT22;36966;48.064;-0.792;2023-02-20T11:50:41;14.20;51.90
50955;DHT22;36966;48.064;-0.792;2023-02-20T11:53:03;14.20;52.00
50955;DHT22;36966;48.064;-0.792;2023-02-20T11:55:25;14.20;52.00
50955;DHT22;36966;48.064;-0.792;2023-02-20T11:57:45;14.20;52.10
50955;DHT22;36966;48.064;-0.792;2023-02-20T12:00:18;14.10;52.10
50955;DHT22;36966;48.064;-0.792;2023-02-20T12:02:48;14.20;52.10
50955;DHT22;36966;48.064;-0.792;2023-02-20T12:05:13;14.20;52.20
50955;DHT22;36966;48.064;-0.792;2023-02-20T12:09:57;14.20;52.30
50955;DHT22;36966;48.064;-0.792;2023-02-20T12:12:19;14.20;52.30
50955;DHT22;36966;48.064;-0.792;2023-02-20T12:14:41;14.20;52.30
50955;DHT22;36966;48.064;-0.792;2023-02-20T12:17:17;14.20;52.40
50955;DHT22;36966;48.064;-0.792;2023-02-20T12:20:23;14.20;52.40
50955;DHT22;36966;48.064;-0.792;2023-02-20T12:22:34;14.20;52.40
50955;DHT22;36966;48.064;-0.792;2023-02-20T12:35:31;14.20;52.70
50955;DHT22;36966;48.064;-0.792;2023-02-20T12:40:40;14.20;52.80
50955;DHT22;36966;48.064;-0.792;2023-02-20T12:51:48;14.20;52.90
50955;DHT22;36966;48.064;-0.792;2023-02-20T12:54:24;14.20;53.00
50955;DHT22;36966;48.064;-0.792;2023-02-20T12:57:05;14.20;53.00
50955;DHT22;36966;48.064;-0.792;2023-02-20T12:59:30;14.20;53.10
50955;DHT22;36966;48.064;-0.792;2023-02-20T13:01:53;14.20;53.10
50955;DHT22;36966;48.064;-0.792;2023-02-20T13:04:19;14.20;53.10
50955;DHT22;36966;48.064;-0.792;2023-02-20T13:09:20;14.20;53.30
50955;DHT22;36966;48.064;-0.792;2023-02-20T13:11:44;14.20;53.30
50955;DHT22;36966;48.064;-0.792;2023-02-20T13:16:38;14.20;53.40
50955;DHT22;36966;48.064;-0.792;2023-02-20T13:19:16;14.20;53.50
50955;DHT22;36966;48.064;-0.792;2023-02-20T13:21:37;14.20;53.50
50955;DHT22;36966;48.064;-0.792;2023-02-20T13:24:26;14.20;53.50
50955;DHT22;36966;48.064;-0.792;2023-02-20T13:29:13;14.20;53.60
50955;DHT22;36966;48.064;-0.792;2023-02-20T13:44:44;14.20;53.80
50955;DHT22;36966;48.064;-0.792;2023-02-20T13:52:30;14.30;53.80
50955;DHT22;36966;48.064;-0.792;2023-02-20T13:54:51;14.30;54.00
50955;DHT22;36966;48.064;-0.792;2023-02-20T13:57:17;14.30;54.00
50955;DHT22;36966;48.064;-0.792;2023-02-20T13:59:37;14.20;53.90
50955;DHT22;36966;48.064;-0.792;2023-02-20T14:04:22;14.30;54.20
50955;DHT22;36966;48.064;-0.792;2023-02-20T14:06:49;14.30;54.40
50955;DHT22;36966;48.064;-0.792;2023-02-20T14:09:14;14.30;54.50
50955;DHT22;36966;48.064;-0.792;2023-02-20T14:11:37;14.30;54.50
50955;DHT22;36966;48.064;-0.792;2023-02-20T14:13:58;14.30;54.40
50955;DHT22;36966;48.064;-0.792;2023-02-20T14:16:28;14.40;54.50
50955;DHT22;36966;48.064;-0.792;2023-02-20T14:18:48;14.30;54.50
50955;DHT22;36966;48.064;-0.792;2023-02-20T14:21:18;14.40;54.40
50955;DHT22;36966;48.064;-0.792;2023-02-20T14:23:38;14.40;54.50
50955;DHT22;36966;48.064;-0.792;2023-02-20T14:26:00;14.40;54.50
50955;DHT22;36966;48.064;-0.792;2023-02-20T14:28:19;14.40;54.50
50955;DHT22;36966;48.064;-0.792;2023-02-20T14:30:41;14.50;54.60
50955;DHT22;36966;48.064;-0.792;2023-02-20T14:33:17;14.40;54.70
50955;DHT22;36966;48.064;-0.792;2023-02-20T14:35:50;14.50;54.60
50955;DHT22;36966;48.064;-0.792;2023-02-20T14:40:53;14.50;54.70
50955;DHT22;36966;48.064;-0.792;2023-02-20T14:43:21;14.50;54.70
50955;DHT22;36966;48.064;-0.792;2023-02-20T14:45:43;14.50;54.90
50955;DHT22;36966;48.064;-0.792;2023-02-20T14:48:03;14.50;54.80
50955;DHT22;36966;48.064;-0.792;2023-02-20T14:50:26;14.50;54.70
50955;DHT22;36966;48.064;-0.792;2023-02-20T14:52:46;14.40;54.80
50955;DHT22;36966;48.064;-0.792;2023-02-20T14:55:15;14.50;54.90
50955;DHT22;36966;48.064;-0.792;2023-02-20T14:57:35;14.50;54.80
50955;DHT22;36966;48.064;-0.792;2023-02-20T15:00:09;14.50;55.00
50955;DHT22;36966;48.064;-0.792;2023-02-20T15:02:28;14.50;55.00
50955;DHT22;36966;48.064;-0.792;2023-02-20T15:05:01;14.50;55.10
50955;DHT22;36966;48.064;-0.792;2023-02-20T15:07:24;14.50;55.10
50955;DHT22;36966;48.064;-0.792;2023-02-20T15:09:45;14.50;55.00
50955;DHT22;36966;48.064;-0.792;2023-02-20T15:12:06;14.50;55.20
50955;DHT22;36966;48.064;-0.792;2023-02-20T15:14:28;14.50;55.00
50955;DHT22;36966;48.064;-0.792;2023-02-20T15:17:20;14.50;55.00
50955;DHT22;36966;48.064;-0.792;2023-02-20T15:19:41;14.50;55.10
50955;DHT22;36966;48.064;-0.792;2023-02-20T15:22:00;14.50;55.10
50955;DHT22;36966;48.064;-0.792;2023-02-20T15:24:27;14.50;55.10
50955;DHT22;36966;48.064;-0.792;2023-02-20T15:26:48;14.50;55.10
50955;DHT22;36966;48.064;-0.792;2023-02-20T15:29:27;14.50;55.10
50955;DHT22;36966;48.064;-0.792;2023-02-20T15:32:02;14.50;55.20
50955;DHT22;36966;48.064;-0.792;2023-02-20T15:34:24;14.50;55.10
50955;DHT22;36966;48.064;-0.792;2023-02-20T15:36:44;14.50;54.90
50955;DHT22;36966;48.064;-0.792;2023-02-20T15:39:04;14.50;54.90
50955;DHT22;36966;48.064;-0.792;2023-02-20T15:41:24;14.50;54.90
50955;DHT22;36966;48.064;-0.792;2023-02-20T15:43:43;14.50;54.90
50955;DHT22;36966;48.064;-0.792;2023-02-20T15:46:02;14.40;54.60
50955;DHT22;36966;48.064;-0.792;2023-02-20T15:48:22;14.40;54.80
50955;DHT22;36966;48.064;-0.792;2023-02-20T15:50:41;14.40;54.70
50955;DHT22;36966;48.064;-0.792;2023-02-20T15:53:01;14.40;54.60
50955;DHT22;36966;48.064;-0.792;2023-02-20T15:55:22;14.40;54.50
50955;DHT22;36966;48.064;-0.792;2023-02-20T15:57:46;14.40;54.40
50955;DHT22;36966;48.064;-0.792;2023-02-20T16:00:07;14.40;54.40
50955;DHT22;36966;48.064;-0.792;2023-02-20T16:02:26;14.40;54.40
50955;DHT22;36966;48.064;-0.792;2023-02-20T16:04:50;14.40;54.40
50955;DHT22;36966;48.064;-0.792;2023-02-20T16:07:10;14.40;54.30
50955;DHT22;36966;48.064;-0.792;2023-02-20T16:09:29;14.40;54.30
50955;DHT22;36966;48.064;-0.792;2023-02-20T16:11:49;14.40;54.40
50955;DHT22;36966;48.064;-0.792;2023-02-20T16:14:09;14.40;54.30
50955;DHT22;36966;48.064;-0.792;2023-02-20T16:16:36;14.40;54.40
50955;DHT22;36966;48.064;-0.792;2023-02-20T16:18:56;14.40;54.30
50955;DHT22;36966;48.064;-0.792;2023-02-20T16:21:17;14.40;54.40
50955;DHT22;36966;48.064;-0.792;2023-02-20T16:23:38;14.40;54.30
50955;DHT22;36966;48.064;-0.792;2023-02-20T16:25:59;14.40;54.30
50955;DHT22;36966;48.064;-0.792;2023-02-20T16:28:19;14.40;54.40
50955;DHT22;36966;48.064;-0.792;2023-02-20T16:30:40;14.40;54.40
50955;DHT22;36966;48.064;-0.792;2023-02-20T16:33:17;14.40;54.40
50955;DHT22;36966;48.064;-0.792;2023-02-20T16:35:37;14.30;54.50
50955;DHT22;36966;48.064;-0.792;2023-02-20T16:37:56;14.30;54.60
50955;DHT22;36966;48.064;-0.792;2023-02-20T16:40:15;14.30;54.60
50955;DHT22;36966;48.064;-0.792;2023-02-20T16:42:36;14.30;54.60